sensor_id;sensor_type;location;lat;lon;timestamp;pressure;altitude;pressure_sealevel;temperature;humidity
46079;BME280;31820;51.880;-0.518;2022-11-09T00:00:05;97974.22;;;14.28;100.00
46079;BME280;31820;51.880;-0.518;2022-11-09T00:02:31;97969.63;;;14.29;100.00
46079;BME280;31820;51.880;-0.518;2022-11-09T00:04:57;97965.84;;;14.23;100.00
46079;BME280;31820;51.880;-0.518;2022-11-09T00:07:22;97974.22;;;14.28;100.00
46079;BME280;31820;51.880;-0.518;2022-11-09T00:09:47;97971.50;;;14.28;100.00
46079;BME280;31820;51.880;-0.518;2022-11-09T00:12:13;97976.09;;;14.28;100.00
46079;BME280;31820;51.880;-0.518;2022-11-09T00:14:38;97968.16;;;14.26;100.00
46079;BME280;31820;51.880;-0.518;2022-11-09T00:17:04;97971.28;;;14.23;100.00
46079;BME280;31820;51.880;-0.518;2022-11-09T00:19:30;97975.25;;;14.27;100.00
46079;BME280;31820;51.880;-0.518;2022-11-09T00:21:55;97972.53;;;14.27;100.00
46079;BME280;31820;51.880;-0.518;2022-11-09T00:24:21;97977.94;;;14.27;100.00
46079;BME280;31820;51.880;-0.518;2022-11-09T00:26:46;97987.97;;;14.27;100.00
46079;BME280;31820;51.880;-0.518;2022-11-09T00:29:12;97978.34;;;14.24;100.00
46079;BME280;31820;51.880;-0.518;2022-11-09T00:31:37;97986.09;;;14.27;100.00
46079;BME280;31820;51.880;-0.518;2022-11-09T00:34:02;97975.66;;;14.24;100.00
46079;BME280;31820;51.880;-0.518;2022-11-09T00:36:29;97994.00;;;14.22;100.00
46079;BME280;31820;51.880;-0.518;2022-11-09T00:38:57;97998.00;;;14.26;100.00
46079;BME280;31820;51.880;-0.518;2022-11-09T00:41:23;98001.72;;;14.25;100.00
46079;BME280;31820;51.880;-0.518;2022-11-09T00:43:49;98003.41;;;14.26;100.00
46079;BME280;31820;51.880;-0.518;2022-11-09T00:46:15;98001.72;;;14.25;100.00
46079;BME280;31820;51.880;-0.518;2022-11-09T00:48:40;98004.44;;;14.25;100.00
46079;BME280;31820;51.880;-0.518;2022-11-09T00:51:06;98001.72;;;14.25;100.00
46079;BME280;31820;51.880;-0.518;2022-11-09T00:53:32;98006.13;;;14.26;100.00
46079;BME280;31820;51.880;-0.518;2022-11-09T00:56:06;97998.19;;;14.25;100.00
46079;BME280;31820;51.880;-0.518;2022-11-09T00:58:34;98000.91;;;14.25;100.00
46079;BME280;31820;51.880;-0.518;2022-11-09T01:01:05;97994.63;;;14.24;100.00
46079;BME280;31820;51.880;-0.518;2022-11-09T01:03:31;97997.34;;;14.24;100.00
46079;BME280;31820;51.880;-0.518;2022-11-09T01:06:00;97996.50;;;14.24;100.00
46079;BME280;31820;51.880;-0.518;2022-11-09T01:08:25;97995.03;;;14.21;100.00
46079;BME280;31820;51.880;-0.518;2022-11-09T01:10:51;98004.63;;;14.24;100.00
46079;BME280;31820;51.880;-0.518;2022-11-09T01:13:18;97999.41;;;14.22;100.00
46079;BME280;31820;51.880;-0.518;2022-11-09T01:15:48;98014.66;;;14.23;100.00
46079;BME280;31820;51.880;-0.518;2022-11-09T01:18:15;98006.53;;;14.23;100.00
46079;BME280;31820;51.880;-0.518;2022-11-09T01:20:43;97997.72;;;14.21;100.00
46079;BME280;31820;51.880;-0.518;2022-11-09T01:23:11;98017.38;;;14.23;100.00
46079;BME280;31820;51.880;-0.518;2022-11-09T01:25:37;98011.09;;;14.23;100.00
46079;BME280;31820;51.880;-0.518;2022-11-09T01:28:03;98006.72;;;14.22;100.00
46079;BME280;31820;51.880;-0.518;2022-11-09T01:30:31;98006.94;;;14.20;100.00
46079;BME280;31820;51.880;-0.518;2022-11-09T01:32:57;97998.59;;;14.22;100.00
46079;BME280;31820;51.880;-0.518;2022-11-09T01:35:23;98004.00;;;14.22;100.00
46079;BME280;31820;51.880;-0.518;2022-11-09T01:37:48;97999.41;;;14.22;100.00
46079;BME280;31820;51.880;-0.518;2022-11-09T01:40:14;98004.84;;;14.22;100.00
46079;BME280;31820;51.880;-0.518;2022-11-09T01:42:39;98008.56;;;14.21;100.00
46079;BME280;31820;51.880;-0.518;2022-11-09T01:47:44;98006.28;;;14.18;100.00
46079;BME280;31820;51.880;-0.518;2022-11-09T01:50:12;98019.63;;;14.20;100.00
46079;BME280;31820;51.880;-0.518;2022-11-09T01:52:42;98028.41;;;14.22;100.00
46079;BME280;31820;51.880;-0.518;2022-11-09T01:55:14;98020.69;;;14.19;100.00
46079;BME280;31820;51.880;-0.518;2022-11-09T01:57:44;98029.44;;;14.21;100.00
46079;BME280;31820;51.880;-0.518;2022-11-09T02:00:14;98045.72;;;14.21;100.00
46079;BME280;31820;51.880;-0.518;2022-11-09T02:02:44;98034.84;;;14.21;100.00
46079;BME280;31820;51.880;-0.518;2022-11-09T02:05:13;98038.59;;;14.20;100.00
46079;BME280;31820;51.880;-0.518;2022-11-09T02:07:41;98034.84;;;14.21;100.00
46079;BME280;31820;51.880;-0.518;2022-11-09T02:10:47;98037.56;;;14.21;100.00
46079;BME280;31820;51.880;-0.518;2022-11-09T02:13:17;98054.03;;;14.19;100.00
46079;BME280;31820;51.880;-0.518;2022-11-09T02:15:43;98051.31;;;14.19;100.00
46079;BME280;31820;51.880;-0.518;2022-11-09T02:18:09;98042.75;;;14.16;100.00
46079;BME280;31820;51.880;-0.518;2022-11-09T02:20:52;98045.91;;;14.19;100.00
46079;BME280;31820;51.880;-0.518;2022-11-09T02:23:19;98045.28;;;14.17;100.00
46079;BME280;31820;51.880;-0.518;2022-11-09T02:25:51;98046.94;;;14.18;100.00
46079;BME280;31820;51.880;-0.518;2022-11-09T02:28:17;98042.75;;;14.16;100.00
46079;BME280;31820;51.880;-0.518;2022-11-09T02:30:45;98033.78;;;14.15;100.00
46079;BME280;31820;51.880;-0.518;2022-11-09T02:33:13;98039.00;;;14.17;100.00
46079;BME280;31820;51.880;-0.518;2022-11-09T02:35:38;98037.34;;;14.16;100.00
46079;BME280;31820;51.880;-0.518;2022-11-09T02:38:07;98042.56;;;14.17;100.00
46079;BME280;31820;51.880;-0.518;2022-11-09T02:40:35;98042.56;;;14.17;100.00
46079;BME280;31820;51.880;-0.518;2022-11-09T02:43:05;98048.00;;;14.17;100.00
46079;BME280;31820;51.880;-0.518;2022-11-09T02:45:31;98046.31;;;14.16;100.00
46079;BME280;31820;51.880;-0.518;2022-11-09T02:47:57;98047.13;;;14.17;100.00
46079;BME280;31820;51.880;-0.518;2022-11-09T02:50:23;98049.00;;;14.16;100.00
46079;BME280;31820;51.880;-0.518;2022-11-09T02:52:48;98049.84;;;14.17;100.00
46079;BME280;31820;51.880;-0.518;2022-11-09T02:55:14;98046.31;;;14.16;100.00
46079;BME280;31820;51.880;-0.518;2022-11-09T02:57:40;98045.28;;;14.17;100.00
46079;BME280;31820;51.880;-0.518;2022-11-09T03:00:06;98054.44;;;14.16;100.00
46079;BME280;31820;51.880;-0.518;2022-11-09T03:02:32;98057.16;;;14.16;100.00
46079;BME280;31820;51.880;-0.518;2022-11-09T03:04:57;98056.31;;;14.16;100.00
46079;BME280;31820;51.880;-0.518;2022-11-09T03:07:23;98064.44;;;14.16;100.00
46079;BME280;31820;51.880;-0.518;2022-11-09T03:09:50;98061.06;;;14.14;100.00
46079;BME280;31820;51.880;-0.518;2022-11-09T03:12:18;98054.78;;;14.06;100.00
46079;BME280;31820;51.880;-0.518;2022-11-09T03:14:54;98065.66;;;14.13;100.00
46079;BME280;31820;51.880;-0.518;2022-11-09T03:17:19;98067.34;;;14.14;100.00
46079;BME280;31820;51.880;-0.518;2022-11-09T03:19:45;98064.66;;;14.14;100.00
46079;BME280;31820;51.880;-0.518;2022-11-09T03:22:10;98077.34;;;14.14;100.00
46079;BME280;31820;51.880;-0.518;2022-11-09T03:24:36;98076.50;;;14.13;100.00
46079;BME280;31820;51.880;-0.518;2022-11-09T03:27:02;98080.06;;;14.14;100.00
46079;BME280;31820;51.880;-0.518;2022-11-09T03:29:27;98077.34;;;14.14;100.00
46079;BME280;31820;51.880;-0.518;2022-11-09T03:31:53;98071.09;;;14.13;100.00
46079;BME280;31820;51.880;-0.518;2022-11-09T03:34:18;98072.78;;;14.14;100.00
46079;BME280;31820;51.880;-0.518;2022-11-09T03:36:44;98075.50;;;14.14;100.00
46079;BME280;31820;51.880;-0.518;2022-11-09T03:39:09;98071.09;;;14.13;100.00
46079;BME280;31820;51.880;-0.518;2022-11-09T03:41:35;98073.81;;;14.13;100.00
46079;BME280;31820;51.880;-0.518;2022-11-09T03:44:00;98072.34;;;14.10;100.00
46079;BME280;31820;51.880;-0.518;2022-11-09T03:46:26;98074.63;;;14.14;100.00
46079;BME280;31820;51.880;-0.518;2022-11-09T03:48:51;98075.69;;;14.13;100.00
46079;BME280;31820;51.880;-0.518;2022-11-09T03:51:17;98084.66;;;14.13;100.00
46079;BME280;31820;51.880;-0.518;2022-11-09T03:53:42;98079.81;;;14.08;100.00
46079;BME280;31820;51.880;-0.518;2022-11-09T03:56:08;98090.91;;;14.14;100.00
46079;BME280;31820;51.880;-0.518;2022-11-09T03:58:33;98091.94;;;14.13;100.00
46079;BME280;31820;51.880;-0.518;2022-11-09T04:00:59;98104.44;;;14.14;100.00
46079;BME280;31820;51.880;-0.518;2022-11-09T04:03:24;98111.75;;;14.13;100.00
46079;BME280;31820;51.880;-0.518;2022-11-09T04:05:50;98108.22;;;14.13;100.00
46079;BME280;31820;51.880;-0.518;2022-11-09T04:08:15;98110.94;;;14.13;100.00
46079;BME280;31820;51.880;-0.518;2022-11-09T04:10:41;98101.31;;;14.10;100.00
46079;BME280;31820;51.880;-0.518;2022-11-09T04:13:06;98107.34;;;14.12;100.00
46079;BME280;31820;51.880;-0.518;2022-11-09T04:15:33;98107.97;;;14.07;100.00
46079;BME280;31820;51.880;-0.518;2022-11-09T04:18:00;98116.53;;;14.11;100.00
46079;BME280;31820;51.880;-0.518;2022-11-09T04:20:27;98114.84;;;14.10;100.00
46079;BME280;31820;51.880;-0.518;2022-11-09T04:22:57;98122.78;;;14.11;100.00
46079;BME280;31820;51.880;-0.518;2022-11-09T04:25:24;98118.44;;;14.10;100.00
46079;BME280;31820;51.880;-0.518;2022-11-09T04:27:56;98119.25;;;14.11;100.00
46079;BME280;31820;51.880;-0.518;2022-11-09T04:30:23;98119.66;;;14.08;100.00
46079;BME280;31820;51.880;-0.518;2022-11-09T04:32:52;98123.19;;;14.08;100.00
46079;BME280;31820;51.880;-0.518;2022-11-09T04:35:21;98123.00;;;14.10;100.00
46079;BME280;31820;51.880;-0.518;2022-11-09T04:37:58;98118.63;;;14.09;100.00
46079;BME280;31820;51.880;-0.518;2022-11-09T04:40:26;98123.19;;;14.08;100.00
46079;BME280;31820;51.880;-0.518;2022-11-09T04:42:52;98117.75;;;14.08;100.00
46079;BME280;31820;51.880;-0.518;2022-11-09T04:45:18;98114.63;;;14.05;100.00
46079;BME280;31820;51.880;-0.518;2022-11-09T04:47:44;98118.63;;;14.09;100.00
46079;BME280;31820;51.880;-0.518;2022-11-09T04:50:10;98117.75;;;14.08;100.00
46079;BME280;31820;51.880;-0.518;2022-11-09T04:52:35;98126.09;;;14.07;100.00
46079;BME280;31820;51.880;-0.518;2022-11-09T04:55:01;98122.75;;;14.05;100.00
46079;BME280;31820;51.880;-0.518;2022-11-09T04:57:26;98125.66;;;14.03;100.00
46079;BME280;31820;51.880;-0.518;2022-11-09T04:59:52;98125.06;;;14.08;100.00
46079;BME280;31820;51.880;-0.518;2022-11-09T05:02:17;98127.78;;;14.08;100.00
46079;BME280;31820;51.880;-0.518;2022-11-09T05:04:43;98126.94;;;14.07;100.00
46079;BME280;31820;51.880;-0.518;2022-11-09T05:07:08;98132.38;;;14.07;100.00
46079;BME280;31820;51.880;-0.518;2022-11-09T05:09:34;98127.78;;;14.08;100.00
46079;BME280;31820;51.880;-0.518;2022-11-09T05:11:59;98134.03;;;14.08;100.00
46079;BME280;31820;51.880;-0.518;2022-11-09T05:14:25;98134.22;;;14.07;100.00
46079;BME280;31820;51.880;-0.518;2022-11-09T05:16:50;98138.63;;;14.08;100.00
46079;BME280;31820;51.880;-0.518;2022-11-09T05:19:16;98146.94;;;14.06;100.00
46079;BME280;31820;51.880;-0.518;2022-11-09T05:21:41;98137.13;;;14.05;100.00
46079;BME280;31820;51.880;-0.518;2022-11-09T05:24:07;98136.09;;;14.06;100.00
46079;BME280;31820;51.880;-0.518;2022-11-09T05:26:35;98137.31;;;14.04;100.00
46079;BME280;31820;51.880;-0.518;2022-11-09T05:29:03;98133.59;;;14.05;100.00
46079;BME280;31820;51.880;-0.518;2022-11-09T05:31:29;98129.66;;;14.07;100.00
46079;BME280;31820;51.880;-0.518;2022-11-09T05:33:55;98124.44;;;14.06;100.00
46079;BME280;31820;51.880;-0.518;2022-11-09T05:36:22;98134.22;;;14.07;100.00
46079;BME280;31820;51.880;-0.518;2022-11-09T05:38:48;98117.34;;;14.05;100.00
46079;BME280;31820;51.880;-0.518;2022-11-09T05:41:14;98126.09;;;14.07;100.00
46079;BME280;31820;51.880;-0.518;2022-11-09T05:43:40;98126.94;;;14.07;100.00
46079;BME280;31820;51.880;-0.518;2022-11-09T05:46:06;98128.16;;;14.05;100.00
46079;BME280;31820;51.880;-0.518;2022-11-09T05:48:31;98131.50;;;14.07;100.00
46079;BME280;31820;51.880;-0.518;2022-11-09T05:51:04;98136.94;;;14.07;100.00
46079;BME280;31820;51.880;-0.518;2022-11-09T05:53:30;98140.69;;;14.06;100.00
46079;BME280;31820;51.880;-0.518;2022-11-09T05:56:10;98138.19;;;14.04;100.00
46079;BME280;31820;51.880;-0.518;2022-11-09T05:58:35;98152.38;;;14.06;100.00
46079;BME280;31820;51.880;-0.518;2022-11-09T06:03:29;98157.78;;;14.06;100.00
46079;BME280;31820;51.880;-0.518;2022-11-09T06:05:59;98151.53;;;14.06;100.00
46079;BME280;31820;51.880;-0.518;2022-11-09T06:08:25;98168.63;;;14.06;100.00
46079;BME280;31820;51.880;-0.518;2022-11-09T06:11:00;98156.09;;;14.05;100.00
46079;BME280;31820;51.880;-0.518;2022-11-09T06:13:27;98162.38;;;14.06;100.00
46079;BME280;31820;51.880;-0.518;2022-11-09T06:15:57;98156.09;;;14.05;100.00
46079;BME280;31820;51.880;-0.518;2022-11-09T06:18:24;98162.38;;;14.06;100.00
46079;BME280;31820;51.880;-0.518;2022-11-09T06:20:54;98170.50;;;14.06;100.00
46079;BME280;31820;51.880;-0.518;2022-11-09T06:23:21;98172.38;;;14.05;100.00
46079;BME280;31820;51.880;-0.518;2022-11-09T06:26:19;98171.53;;;14.05;100.00
46079;BME280;31820;51.880;-0.518;2022-11-09T06:28:45;98166.94;;;14.05;100.00
46079;BME280;31820;51.880;-0.518;2022-11-09T06:31:15;98177.78;;;14.05;100.00
46079;BME280;31820;51.880;-0.518;2022-11-09T06:33:40;98182.38;;;14.05;100.00
46079;BME280;31820;51.880;-0.518;2022-11-09T06:36:06;98189.47;;;14.06;100.00
46079;BME280;31820;51.880;-0.518;2022-11-09T06:38:33;98194.03;;;14.05;100.00
46079;BME280;31820;51.880;-0.518;2022-11-09T06:40:59;98191.91;;;14.01;100.00
46079;BME280;31820;51.880;-0.518;2022-11-09T06:43:26;98203.22;;;14.04;100.00
46079;BME280;31820;51.880;-0.518;2022-11-09T06:45:51;98214.91;;;14.05;100.00
46079;BME280;31820;51.880;-0.518;2022-11-09T06:48:17;98219.50;;;14.04;100.00
46079;BME280;31820;51.880;-0.518;2022-11-09T06:50:43;98230.34;;;14.04;100.00
46079;BME280;31820;51.880;-0.518;2022-11-09T06:53:11;98232.19;;;14.04;100.00
46079;BME280;31820;51.880;-0.518;2022-11-09T06:55:38;98232.38;;;14.02;100.00
46079;BME280;31820;51.880;-0.518;2022-11-09T06:58:09;98243.03;;;14.04;100.00
46079;BME280;31820;51.880;-0.518;2022-11-09T07:00:35;98244.09;;;14.03;100.00
46079;BME280;31820;51.880;-0.518;2022-11-09T07:03:01;98252.41;;;14.01;100.00
46079;BME280;31820;51.880;-0.518;2022-11-09T07:05:27;98254.91;;;14.03;100.00
46079;BME280;31820;51.880;-0.518;2022-11-09T07:07:53;98257.63;;;14.03;100.00
46079;BME280;31820;51.880;-0.518;2022-11-09T07:10:19;98256.97;;;14.01;100.00
46079;BME280;31820;51.880;-0.518;2022-11-09T07:12:44;98260.34;;;14.03;100.00
46079;BME280;31820;51.880;-0.518;2022-11-09T07:15:13;98263.88;;;14.03;100.00
46079;BME280;31820;51.880;-0.518;2022-11-09T07:17:38;98266.97;;;14.00;100.00
46079;BME280;31820;51.880;-0.518;2022-11-09T07:20:09;98274.91;;;14.02;100.00
46079;BME280;31820;51.880;-0.518;2022-11-09T07:22:35;98286.38;;;14.04;100.00
46079;BME280;31820;51.880;-0.518;2022-11-09T07:25:05;98282.84;;;14.03;100.00
46079;BME280;31820;51.880;-0.518;2022-11-09T07:27:31;98284.53;;;14.04;100.00
46079;BME280;31820;51.880;-0.518;2022-11-09T07:29:56;98282.66;;;14.05;100.00
46079;BME280;31820;51.880;-0.518;2022-11-09T07:32:22;98281.63;;;14.06;100.00
46079;BME280;31820;51.880;-0.518;2022-11-09T07:34:47;98280.97;;;14.04;100.00
46079;BME280;31820;51.880;-0.518;2022-11-09T07:37:13;98300.63;;;14.06;100.00
46079;BME280;31820;51.880;-0.518;2022-11-09T07:39:38;98304.97;;;14.07;100.00
46079;BME280;31820;51.880;-0.518;2022-11-09T07:42:04;98296.03;;;14.06;100.00
46079;BME280;31820;51.880;-0.518;2022-11-09T07:44:29;98298.09;;;14.04;100.00
46079;BME280;31820;51.880;-0.518;2022-11-09T07:46:55;98304.97;;;14.07;100.00
46079;BME280;31820;51.880;-0.518;2022-11-09T07:49:20;98307.88;;;14.05;100.00
46079;BME280;31820;51.880;-0.518;2022-11-09T07:51:46;98307.88;;;14.05;100.00
46079;BME280;31820;51.880;-0.518;2022-11-09T07:54:11;98324.81;;;14.07;100.00
46079;BME280;31820;51.880;-0.518;2022-11-09T07:56:37;98311.66;;;14.04;100.00
46079;BME280;31820;51.880;-0.518;2022-11-09T07:59:02;98329.19;;;14.08;100.00
46079;BME280;31820;51.880;-0.518;2022-11-09T08:01:28;98330.03;;;14.09;100.00
46079;BME280;31820;51.880;-0.518;2022-11-09T08:03:53;98341.72;;;14.09;100.00
46079;BME280;31820;51.880;-0.518;2022-11-09T08:06:20;98340.03;;;14.08;100.00
46079;BME280;31820;51.880;-0.518;2022-11-09T08:08:46;98350.69;;;14.10;100.00
46079;BME280;31820;51.880;-0.518;2022-11-09T08:11:14;98359.84;;;14.09;100.00
46079;BME280;31820;51.880;-0.518;2022-11-09T08:13:39;98357.16;;;14.09;100.00
46079;BME280;31820;51.880;-0.518;2022-11-09T08:16:05;98365.91;;;14.11;100.00
46079;BME280;31820;51.880;-0.518;2022-11-09T08:18:30;98375.06;;;14.10;100.00
46079;BME280;31820;51.880;-0.518;2022-11-09T08:20:56;98375.06;;;14.10;100.00
46079;BME280;31820;51.880;-0.518;2022-11-09T08:23:21;98376.94;;;14.09;100.00
46079;BME280;31820;51.880;-0.518;2022-11-09T08:25:48;98392.38;;;14.09;100.00
46079;BME280;31820;51.880;-0.518;2022-11-09T08:28:14;98395.75;;;14.11;100.00
46079;BME280;31820;51.880;-0.518;2022-11-09T08:30:44;98401.81;;;14.13;100.00
46079;BME280;31820;51.880;-0.518;2022-11-09T08:33:10;98414.34;;;14.14;100.00
46079;BME280;31820;51.880;-0.518;2022-11-09T08:35:36;98410.94;;;14.12;100.00
46079;BME280;31820;51.880;-0.518;2022-11-09T08:38:04;98419.75;;;14.14;100.00
46079;BME280;31820;51.880;-0.518;2022-11-09T08:40:30;98415.16;;;14.15;100.00
46079;BME280;31820;51.880;-0.518;2022-11-09T08:43:00;98423.28;;;14.15;100.00
46079;BME280;31820;51.880;-0.518;2022-11-09T08:45:27;98425.19;;;14.14;100.00
46079;BME280;31820;51.880;-0.518;2022-11-09T08:47:57;98417.63;;;14.09;100.00
46079;BME280;31820;51.880;-0.518;2022-11-09T08:50:23;98429.16;;;14.18;100.00
46079;BME280;31820;51.880;-0.518;2022-11-09T08:52:48;98423.09;;;14.16;100.00
46079;BME280;31820;51.880;-0.518;2022-11-09T08:55:14;98438.63;;;14.22;100.00
46079;BME280;31820;51.880;-0.518;2022-11-09T08:57:39;98434.69;;;14.25;100.00
46079;BME280;31820;51.880;-0.518;2022-11-09T09:00:05;98452.44;;;14.27;100.00
46079;BME280;31820;51.880;-0.518;2022-11-09T09:02:31;98446.00;;;14.28;100.00
46079;BME280;31820;51.880;-0.518;2022-11-09T09:04:57;98460.81;;;14.33;100.00
46079;BME280;31820;51.880;-0.518;2022-11-09T09:07:22;98467.56;;;14.37;100.00
46079;BME280;31820;51.880;-0.518;2022-11-09T09:09:48;98463.84;;;14.38;100.00
46079;BME280;31820;51.880;-0.518;2022-11-09T09:12:13;98485.03;;;14.34;100.00
46079;BME280;31820;51.880;-0.518;2022-11-09T09:14:39;98479.25;;;14.37;100.00
46079;BME280;31820;51.880;-0.518;2022-11-09T09:17:04;98480.84;;;14.32;100.00
46079;BME280;31820;51.880;-0.518;2022-11-09T09:19:30;98480.84;;;14.32;100.00
46079;BME280;31820;51.880;-0.518;2022-11-09T09:21:56;98482.53;;;14.33;100.00
46079;BME280;31820;51.880;-0.518;2022-11-09T09:24:22;98497.13;;;14.32;100.00
46079;BME280;31820;51.880;-0.518;2022-11-09T09:26:47;98497.41;;;14.37;100.00
46079;BME280;31820;51.880;-0.518;2022-11-09T09:29:13;98492.91;;;14.44;100.00
46079;BME280;31820;51.880;-0.518;2022-11-09T09:31:39;98496.00;;;14.41;100.00
46079;BME280;31820;51.880;-0.518;2022-11-09T09:34:05;98507.28;;;14.44;100.00
46079;BME280;31820;51.880;-0.518;2022-11-09T09:36:31;98510.47;;;14.48;100.00
46079;BME280;31820;51.880;-0.518;2022-11-09T09:38:56;98520.84;;;14.44;100.00
46079;BME280;31820;51.880;-0.518;2022-11-09T09:41:52;98529.38;;;14.41;100.00
46079;BME280;31820;51.880;-0.518;2022-11-09T09:44:32;98530.56;;;14.39;100.00
46079;BME280;31820;51.880;-0.518;2022-11-09T09:47:12;98528.72;;;14.39;100.00
46079;BME280;31820;51.880;-0.518;2022-11-09T09:49:46;98530.41;;;14.40;100.00
46079;BME280;31820;51.880;-0.518;2022-11-09T09:57:31;98538.34;;;14.42;100.00
46079;BME280;31820;51.880;-0.518;2022-11-09T10:00:00;98547.16;;;14.44;100.00
46079;BME280;31820;51.880;-0.518;2022-11-09T10:02:33;98545.66;;;14.41;100.00
46079;BME280;31820;51.880;-0.518;2022-11-09T10:05:01;98548.53;;;14.40;100.00
46079;BME280;31820;51.880;-0.518;2022-11-09T10:07:41;98552.94;;;14.41;100.00
46079;BME280;31820;51.880;-0.518;2022-11-09T10:16:38;98558.19;;;14.42;100.00
46079;BME280;31820;51.880;-0.518;2022-11-09T10:19:38;98570.88;;;14.42;100.00
46079;BME280;31820;51.880;-0.518;2022-11-09T10:24:53;98576.69;;;14.39;100.00
46079;BME280;31820;51.880;-0.518;2022-11-09T10:27:25;98591.56;;;14.43;100.00
46079;BME280;31820;51.880;-0.518;2022-11-09T10:29:53;98586.88;;;14.37;100.00
46079;BME280;31820;51.880;-0.518;2022-11-09T10:32:21;98596.16;;;14.42;100.00
46079;BME280;31820;51.880;-0.518;2022-11-09T10:35:18;98604.94;;;14.44;100.00
46079;BME280;31820;51.880;-0.518;2022-11-09T10:37:47;98602.22;;;14.44;100.00
46079;BME280;31820;51.880;-0.518;2022-11-09T10:42:59;98617.94;;;14.49;100.00
46079;BME280;31820;51.880;-0.518;2022-11-09T10:45:34;98626.72;;;14.51;100.00
46079;BME280;31820;51.880;-0.518;2022-11-09T10:48:01;98630.66;;;14.48;100.00
46079;BME280;31820;51.880;-0.518;2022-11-09T10:50:33;98632.16;;;14.51;100.00
46079;BME280;31820;51.880;-0.518;2022-11-09T10:55:37;98628.41;;;14.52;100.00
46079;BME280;31820;51.880;-0.518;2022-11-09T11:00:55;98644.03;;;14.50;100.00
46079;BME280;31820;51.880;-0.518;2022-11-09T11:03:23;98648.59;;;14.50;100.00
46079;BME280;31820;51.880;-0.518;2022-11-09T11:05:59;98642.72;;;14.46;100.00
46079;BME280;31820;51.880;-0.518;2022-11-09T11:08:34;98650.69;;;14.47;100.00
46079;BME280;31820;51.880;-0.518;2022-11-09T11:13:38;98666.03;;;14.55;100.00
46079;BME280;31820;51.880;-0.518;2022-11-09T11:16:34;98664.97;;;14.56;100.00
46079;BME280;31820;51.880;-0.518;2022-11-09T11:19:00;98660.59;;;14.55;100.00
46079;BME280;31820;51.880;-0.518;2022-11-09T11:21:26;98675.63;;;14.58;100.00
46079;BME280;31820;51.880;-0.518;2022-11-09T11:24:15;98678.50;;;14.64;100.00
46079;BME280;31820;51.880;-0.518;2022-11-09T11:26:56;98688.50;;;14.64;100.00
46079;BME280;31820;51.880;-0.518;2022-11-09T11:29:30;98688.13;;;14.67;100.00
46079;BME280;31820;51.880;-0.518;2022-11-09T11:31:59;98693.09;;;14.63;100.00
46079;BME280;31820;51.880;-0.518;2022-11-09T11:34:25;98686.25;;;14.68;100.00
46079;BME280;31820;51.880;-0.518;2022-11-09T11:40:01;98686.25;;;14.68;100.00
46079;BME280;31820;51.880;-0.518;2022-11-09T11:43:10;98685.22;;;14.69;100.00
46079;BME280;31820;51.880;-0.518;2022-11-09T11:45:52;98683.75;;;14.66;100.00
46079;BME280;31820;51.880;-0.518;2022-11-09T11:54:15;98696.38;;;14.74;100.00
46079;BME280;31820;51.880;-0.518;2022-11-09T11:59:58;98700.56;;;14.76;100.00
46079;BME280;31820;51.880;-0.518;2022-11-09T12:03:04;98695.13;;;14.76;100.00
46079;BME280;31820;51.880;-0.518;2022-11-09T12:14:11;98707.22;;;14.74;100.00
46079;BME280;31820;51.880;-0.518;2022-11-09T12:16:51;98716.38;;;14.73;100.00
46079;BME280;31820;51.880;-0.518;2022-11-09T12:22:14;98731.25;;;14.77;100.00
46079;BME280;31820;51.880;-0.518;2022-11-09T12:32:41;98732.38;;;14.82;100.00
46079;BME280;31820;51.880;-0.518;2022-11-09T12:37:51;98732.56;;;14.81;100.00
46079;BME280;31820;51.880;-0.518;2022-11-09T12:42:50;98734.25;;;14.82;100.00
46079;BME280;31820;51.880;-0.518;2022-11-09T12:45:29;98741.38;;;14.83;100.00
46079;BME280;31820;51.880;-0.518;2022-11-09T12:48:02;98731.75;;;14.80;100.00
46079;BME280;31820;51.880;-0.518;2022-11-09T12:50:29;98740.34;;;14.84;100.00
46079;BME280;31820;51.880;-0.518;2022-11-09T12:52:57;98733.59;;;14.80;100.00
46079;BME280;31820;51.880;-0.518;2022-11-09T12:55:45;98737.63;;;14.84;100.00
46079;BME280;31820;51.880;-0.518;2022-11-09T12:58:23;98744.25;;;14.81;100.00
46079;BME280;31820;51.880;-0.518;2022-11-09T13:00:52;98742.41;;;14.82;100.00
46079;BME280;31820;51.880;-0.518;2022-11-09T13:03:22;98739.69;;;14.82;100.00
46079;BME280;31820;51.880;-0.518;2022-11-09T13:05:48;98751.19;;;14.84;100.00
46079;BME280;31820;51.880;-0.518;2022-11-09T13:08:33;98763.06;;;14.83;100.00
46079;BME280;31820;51.880;-0.518;2022-11-09T13:17:01;98769.63;;;14.89;100.00
46079;BME280;31820;51.880;-0.518;2022-11-09T13:19:53;98782.19;;;14.90;100.00
46079;BME280;31820;51.880;-0.518;2022-11-09T13:24:55;98788.00;;;14.87;100.00
46079;BME280;31820;51.880;-0.518;2022-11-09T13:38:14;98794.91;;;14.89;100.00
46079;BME280;31820;51.880;-0.518;2022-11-09T13:40:42;98799.03;;;14.85;100.00
46079;BME280;31820;51.880;-0.518;2022-11-09T13:48:00;98803.03;;;14.89;100.00
46079;BME280;31820;51.880;-0.518;2022-11-09T13:50:29;98813.91;;;14.89;100.00
46079;BME280;31820;51.880;-0.518;2022-11-09T13:52:56;98800.69;;;14.86;100.00
46079;BME280;31820;51.880;-0.518;2022-11-09T13:55:30;98812.25;;;14.88;100.00
46079;BME280;31820;51.880;-0.518;2022-11-09T13:58:00;98830.19;;;14.89;100.00
46079;BME280;31820;51.880;-0.518;2022-11-09T14:00:27;98825.81;;;14.88;100.00
46079;BME280;31820;51.880;-0.518;2022-11-09T14:05:40;98833.09;;;14.88;100.00
46079;BME280;31820;51.880;-0.518;2022-11-09T14:08:18;98837.88;;;14.86;100.00
46079;BME280;31820;51.880;-0.518;2022-11-09T14:10:55;98843.00;;;14.80;100.00
46079;BME280;31820;51.880;-0.518;2022-11-09T14:23:53;98879.06;;;14.89;100.00
46079;BME280;31820;51.880;-0.518;2022-11-09T14:26:24;98875.50;;;14.89;100.00
46079;BME280;31820;51.880;-0.518;2022-11-09T14:28:50;98881.75;;;14.89;100.00
46079;BME280;31820;51.880;-0.518;2022-11-09T14:31:21;98888.06;;;14.90;100.00